This is the latest recevied weather packets stored in our database for station/object KF4PPJ. If no packets are shown the sender has not sent any weather packets the latest 10 day(s).
| Time | Temp. | Humidity | Pressure | Rain* | Wind** | Luminosity | Snow |
|---|---|---|---|---|---|---|---|
| 1778037994 | 13.89° C | 85% | 1018 hPa | 0 mm | - | 1 W/m² | - |
| 1778037691 | 13.89° C | 84% | 1018 hPa | 0 mm | - | 3 W/m² | - |
| 1778037388 | 14.44° C | 83% | 1017.8 hPa | 0 mm | - | 6 W/m² | - |
| 1778037085 | 14.44° C | 82% | 1018 hPa | 0 mm | - | 8 W/m² | - |
| 1778036784 | 15° C | 81% | 1017.7 hPa | 0 mm | - | 10 W/m² | - |
| 1778036481 | 15° C | 81% | 1017.8 hPa | 0 mm | - | 12 W/m² | - |
| 1778036178 | 15° C | 80% | 1017.8 hPa | 0 mm | - | 16 W/m² | - |
| 1778035873 | 15.56° C | 79% | 1017.7 hPa | 0 mm | - | 18 W/m² | - |
| 1778035571 | 15.56° C | 77% | 1017.9 hPa | 0 mm | - | 22 W/m² | - |
| 1778035267 | 16.11° C | 76% | 1017.7 hPa | 0 mm | - | 23 W/m² | - |
| 1778034963 | 16.67° C | 74% | 1017.7 hPa | 0 mm | - | 26 W/m² | - |
| 1778034661 | 16.67° C | 72% | 1017.8 hPa | 0 mm | - | 31 W/m² | - |
| 1778034358 | 16.67° C | 73% | 1017.8 hPa | 0 mm | - | 36 W/m² | - |
| 1778034056 | 16.67° C | 73% | 1017.7 hPa | 0 mm | - | 36 W/m² | - |
| 1778033753 | 16.67° C | 73% | 1017.7 hPa | 0 mm | - | 40 W/m² | - |
| 1778033450 | 16.67° C | 71% | 1017.9 hPa | 0 mm | - | 44 W/m² | - |
| 1778033147 | 17.22° C | 71% | 1017.8 hPa | 0 mm | - | 45 W/m² | - |
| 1778032844 | 17.22° C | 71% | 1018 hPa | 0 mm | - | 94 W/m² | - |
| 1778032542 | 17.22° C | 71% | 1017.8 hPa | 0 mm | - | 49 W/m² | - |
| 1778032238 | 17.22° C | 71% | 1017.7 hPa | 0 mm | - | 52 W/m² | - |
| 1778031936 | 17.22° C | 69% | 1017.7 hPa | 0 mm | - | 51 W/m² | - |
| 1778031632 | 17.22° C | 70% | 1018 hPa | 0 mm | - | 88 W/m² | - |
| 1778031330 | 17.22° C | 70% | 1017.7 hPa | 0 mm | - | 53 W/m² | - |
| 1778031027 | 17.78° C | 68% | 1017.7 hPa | 0 mm | - | 54 W/m² | - |
| 1778030723 | 17.78° C | 68% | 1017.8 hPa | 0 mm | - | 59 W/m² | - |
* Rain latest hour (hover to see other rain measurements)
** Current wind speed in m/s (hover to see current wind gust speed)